Garden Plain, Kansas
Current Conditions -  °F | °C
As of 5:53 AM on Monday 26 Jan 2015 (Local Time) from KICT Reporting Station
Clear Clear  
Wind Chill: 20°   Ceiling: Unl
Heat Index: 27°   Visibility: 10mi
Dew Point: 23°   Wind: 6mph
Humidity: 85%   Direction: 190°S
Pressure: 30.07"   Gusts: NA
Location:  37.66°N, 97.68°W
Report Text: KICT 261153Z 19005KT 10SM CLR M03/M05 A3007 RMK AO2 SLP191 T10281050 11011 21039 58022
Loading
Personal Weather Stations






























Interactive Weather Map New forecast layout! Learn more

10-Day Weather Forecast

Advertisements
Track Severe Weather on mobile